• Join FlightAware (Why Join?)
  • Login
  • US Flag 
06:50PM EDT


 

Airport Tracker/Info


-or-


 

Live Flight TrackerFlight Track Log ✈ SKW6280 ✈ 26-Apr-2013 ✈ KDEN - KMLI

Flight Track Log - Related Links

Times and Time Zones

All times are in EDT time to prevent confusion due to time zone crossing. See the SKW6280 flight status page for this flight to view local times or setup timezone preferences in your user account.

Time Position Orientation Groundspeed Altitude Reporting Facility
EDT Latitude Longitude Course Direction KTS MPH feet Rate Location/Type
12:06PM 39.9380 -104.1782 79° East  Level FlightAware Approximate
12:07PM 39.9709 -104.0163 72° East  Level FlightAware Approximate
12:08PM 39.9961 -103.8523 82° East  Level FlightAware Approximate
12:09PM 40.0263 -103.6903 81° East  Level FlightAware Approximate
12:10PM 40.0470 -103.5246 81° East  Level FlightAware Approximate
12:11PM 40.0722 -103.3599 78° East  Level FlightAware Approximate
12:12PM 40.0981 -103.1952 78° East  Level FlightAware Approximate
12:13PM 40.1269 -103.0314 77° East  Level FlightAware Approximate
12:14PM 40.1541 -102.8670 81° East  Level FlightAware Approximate
12:15PM 40.1796 -102.7023 75° East  Level FlightAware Approximate
12:16PM 40.2122 -102.5395 75° East  Level FlightAware Approximate
12:17PM 40.2387 -102.3750 83° East  Level FlightAware Approximate
12:18PM 40.2570 -102.2084 78° East  Level FlightAware Approximate
12:19PM 40.2841 -102.0437 81° East  Level FlightAware Approximate
12:20PM 40.3069 -101.8778 77° East  Level FlightAware Approximate
12:21PM 40.3359 -101.7135 77° East  Level FlightAware Approximate
12:22PM 40.3567 -101.5473 84° East  Level FlightAware Approximate
12:23PM 40.3750 -101.3808 73° East  Level FlightAware Approximate
12:24PM 40.4123 -101.2192 73° East  Level FlightAware Approximate
12:25PM 40.4447 -101.0558 76° East  Level FlightAware Approximate
12:26PM 40.4763 -100.8920 76° East  Level FlightAware Approximate
12:27PM 40.5077 -100.7280 76° East  Level FlightAware Approximate
12:28PM 40.5388 -100.5639 76° East  Level FlightAware Approximate
12:29PM 40.5697 -100.3996 76° East  Level FlightAware Approximate
12:30PM 40.6004 -100.2352 76° East  Level FlightAware Approximate
12:31PM 40.6308 -100.0706 76° East  Level FlightAware Approximate
12:32PM 40.6610 -99.9059 76° East  Level FlightAware Approximate
12:33PM 40.6910 -99.7410 76° East  Level FlightAware Approximate
12:34PM 40.7207 -99.5759 77° East  Level FlightAware Approximate
12:35PM 40.7502 -99.4108 77° East  Level FlightAware Approximate
12:36PM 40.7795 -99.2454 77° East  Level FlightAware Approximate
12:37PM 40.8085 -99.0800 77° East  Level FlightAware Approximate
12:38PM 40.8382 -98.9146 76° East  Level FlightAware Approximate
12:39PM 40.8681 -98.7493 77° East  Level FlightAware Approximate
12:40PM 40.8977 -98.5838 77° East  Level FlightAware Approximate
12:41PM 40.9271 -98.4181 77° East  Level FlightAware Approximate
12:42PM 40.9562 -98.2523 77° East  Level FlightAware Approximate
12:43PM 40.9851 -98.0864 77° East  Level FlightAware Approximate
12:44PM 41.0059 -97.9186 85° East  Level FlightAware Approximate
12:45PM 41.0179 -97.7489 85° East  Level FlightAware Approximate
12:46PM 41.0297 -97.5792 85° East  Level FlightAware Approximate
12:47PM 41.0412 -97.4094 85° East  Level FlightAware Approximate
12:48PM 41.0524 -97.2395 85° East  Level FlightAware Approximate
12:49PM 41.0635 -97.0696 85° East  Level FlightAware Approximate
12:50PM 41.0742 -96.8997 85° East  Level FlightAware Approximate
12:51PM 41.0848 -96.7297 85° East  Level FlightAware Approximate
12:52PM 41.0950 -96.5596 85° East  Level FlightAware Approximate
12:53PM 41.1050 -96.3895 85° East  Level FlightAware Approximate
12:54PM 41.1148 -96.2193 86° East  Level FlightAware Approximate
12:55PM 41.1243 -96.0491 86° East  Level FlightAware Approximate
12:56PM 41.1336 -95.8788 86° East  Level FlightAware Approximate
12:57PM 41.1426 -95.7085 86° East  Level FlightAware Approximate
12:58PM 41.1515 -95.5381 86° East  Level FlightAware Approximate
12:59PM 41.1600 -95.3677 86° East  Level FlightAware Approximate
01:00PM 41.1683 -95.1973 86° East  Level FlightAware Approximate
01:01PM 41.1764 -95.0268 86° East  Level FlightAware Approximate
01:02PM 41.1842 -94.8563 86° East  Level FlightAware Approximate
01:03PM 41.1917 -94.6857 87° East  Level FlightAware Approximate
01:04PM 41.1991 -94.5151 87° East  Level FlightAware Approximate
01:05PM 41.2061 -94.3444 87° East  Level FlightAware Approximate
01:06PM 41.2129 -94.1738 87° East  Level FlightAware Approximate
01:07PM 41.2195 -94.0030 87° East  Level FlightAware Approximate
01:08PM 41.2257 -93.8323 87° East  Level FlightAware Approximate
01:09PM 41.2318 -93.6615 87° East  Level FlightAware Approximate
01:10PM 41.2500 -93.5016 90° East  Level FlightAware Approximate
01:11PM 41.2500 -93.3306 90° East  Level FlightAware Approximate
01:12PM 41.2500 -93.1595 90° East  Level FlightAware Approximate
01:13PM 41.2546 -92.9886 87° East  Level FlightAware Approximate
01:14PM 41.2606 -92.8178 87° East  Level FlightAware Approximate
01:15PM 41.2662 -92.6469 87° East  Level FlightAware Approximate
01:16PM 41.2833 -92.4774 90° East  Level FlightAware Approximate
01:17PM 41.2835 -92.3063 90° East  Level FlightAware Approximate
01:18PM 41.2833 -92.1352 90° East  Level FlightAware Approximate
01:19PM 41.2919 -91.9644 86° East  Level FlightAware Approximate
01:20PM 41.3000 -91.7936 90° East  Level FlightAware Approximate
01:21PM 41.3001 -91.6225 90° East  Level FlightAware Approximate
01:22PM 41.3000 -91.4513 90° East  Level FlightAware Approximate
01:23PM 41.3000 -91.2801 90° East  Level FlightAware Approximate
01:24PM 41.3070 -91.1093 86° East  Level FlightAware Approximate
01:25PM 41.3164 -90.9386 86° East  Level FlightAware Approximate
01:26PM 41.3167 -90.7674 90° East  Level FlightAware Approximate
01:27PM 41.3390 -90.6110 37° Northeast  Level FlightAware Approximate
01:28PM 41.4333 -90.5000 48° Northeast  Level FlightAware Approximate
01:29PM 41.4483 -90.5075 48° Northeast  Level Estimated
01:30PM 41.4483 -90.5075 48° Northeast  Level Estimated
01:31PM 41.4483 -90.5075 48° Northeast  Level Estimated
01:32PM 41.4483 -90.5075 48° Northeast  Level Estimated
01:33PM 41.4483 -90.5075 48° Northeast  Level Estimated
01:34PM 41.4483 -90.5075 48° Northeast  Level Estimated
01:35PM 41.4483 -90.5075 48° Northeast  Level Estimated
01:36PM 41.4483 -90.5075 48° Northeast  Level Estimated
01:37PM 41.4483 -90.5075 48° Northeast  Level Estimated
01:38PM 41.4483 -90.5075 48° Northeast  Level Estimated
01:39PM 41.4483 -90.5075 48° Northeast  Level Estimated
01:40PM 41.4483 -90.5075 48° Northeast  Level Estimated
01:41PM 41.4483 -90.5075 48° Northeast  Level Estimated
01:42PM 41.4483 -90.5075 48° Northeast  Level Estimated
01:43PM 41.4483 -90.5075 48° Northeast  Level Estimated
01:44PM 41.4483 -90.5075 48° Northeast  Level Estimated